createdAt,value
2023-10-20T00:02:29.111Z,36.72
2023-10-20T00:04:56.213Z,37.03
2023-10-20T00:07:23.413Z,36.33
2023-10-20T00:09:51.057Z,36.75
2023-10-20T00:12:18.276Z,34.55
2023-10-20T00:14:46.074Z,33.63
2023-10-20T00:17:13.277Z,35.05
2023-10-20T00:19:40.093Z,34.35
2023-10-20T00:22:07.463Z,32.95
2023-10-20T00:24:34.507Z,35.15
2023-10-20T00:27:01.725Z,33.22
2023-10-20T00:29:28.534Z,33.10
2023-10-20T00:31:55.825Z,33.65
2023-10-20T00:34:22.836Z,33.10
2023-10-20T00:36:50.011Z,34.15
2023-10-20T00:39:17.759Z,34.45
2023-10-20T00:41:45.056Z,34.65
2023-10-20T00:44:11.871Z,34.05
2023-10-20T00:46:39.035Z,31.23
2023-10-20T00:49:06.202Z,31.15
2023-10-20T00:51:33.376Z,31.65
2023-10-20T00:54:00.828Z,32.03
2023-10-20T00:56:28.155Z,31.35
2023-10-20T00:58:54.911Z,32.00
2023-10-20T01:01:22.150Z,32.33
2023-10-20T01:03:49.629Z,30.08
2023-10-20T01:06:16.769Z,31.70
2023-10-20T01:08:43.752Z,32.25
2023-10-20T01:11:10.877Z,28.88
2023-10-20T01:13:38.498Z,31.65
2023-10-20T01:16:05.917Z,30.98
2023-10-20T01:18:33.390Z,31.20
2023-10-20T01:21:00.501Z,32.47
2023-10-20T01:23:27.372Z,32.60
2023-10-20T01:25:54.539Z,30.95
2023-10-20T01:28:21.359Z,31.85
2023-10-20T01:30:48.863Z,31.55
2023-10-20T01:33:15.995Z,32.58
2023-10-20T01:35:43.149Z,29.85
2023-10-20T01:38:12.019Z,31.02
2023-10-20T01:40:39.123Z,31.13
2023-10-20T01:43:05.895Z,29.23
2023-10-20T01:45:33.029Z,28.45
2023-10-20T01:47:59.853Z,29.27
2023-10-20T01:50:27.889Z,30.58
2023-10-20T01:52:54.776Z,29.42
2023-10-20T01:55:21.964Z,28.42
2023-10-20T01:57:48.768Z,27.67
2023-10-20T02:00:16.335Z,28.20
2023-10-20T02:02:43.368Z,28.38
2023-10-20T02:05:10.928Z,26.73
2023-10-20T02:07:38.176Z,27.23
2023-10-20T02:10:07.969Z,26.45
2023-10-20T02:12:35.528Z,25.38
2023-10-20T02:15:02.682Z,25.33
2023-10-20T02:17:30.189Z,25.48
2023-10-20T02:19:58.602Z,25.60
2023-10-20T02:22:26.395Z,25.58
2023-10-20T02:24:54.311Z,24.55
2023-10-20T02:27:21.305Z,24.67
2023-10-20T02:29:48.456Z,25.70
2023-10-20T02:32:15.380Z,25.52
2023-10-20T02:34:42.594Z,24.27
2023-10-20T02:37:13.344Z,25.50
2023-10-20T02:39:40.916Z,24.95
2023-10-20T02:42:07.763Z,24.58
2023-10-20T02:44:34.998Z,25.67
2023-10-20T02:47:01.985Z,22.45
2023-10-20T02:49:29.154Z,23.40
2023-10-20T02:51:56.947Z,24.67
2023-10-20T02:54:24.114Z,25.52
2023-10-20T02:56:50.954Z,23.55
2023-10-20T02:59:18.110Z,24.35
2023-10-20T03:01:44.901Z,23.98
2023-10-20T03:04:12.142Z,24.58
2023-10-20T03:06:39.076Z,24.85
2023-10-20T03:09:06.242Z,24.98
2023-10-20T03:11:33.072Z,24.83
2023-10-20T03:14:00.488Z,25.05
2023-10-20T03:16:27.967Z,23.85
2023-10-20T03:18:55.138Z,24.65
2023-10-20T03:21:22.868Z,26.55
2023-10-20T03:23:50.277Z,24.25
2023-10-20T03:26:17.229Z,25.48
2023-10-20T03:28:45.312Z,25.10
2023-10-20T03:31:12.593Z,24.90
2023-10-20T03:33:39.752Z,25.48
2023-10-20T03:36:06.705Z,24.65
2023-10-20T03:38:34.321Z,23.70
2023-10-20T03:41:08.122Z,25.10
2023-10-20T03:43:36.518Z,26.17
2023-10-20T03:46:04.329Z,24.50
2023-10-20T03:48:34.565Z,23.90
2023-10-20T03:51:01.594Z,24.80
2023-10-20T03:53:28.886Z,24.02
2023-10-20T03:56:02.541Z,24.17
2023-10-20T03:58:30.611Z,22.80
2023-10-20T04:01:03.860Z,23.65
2023-10-20T04:03:31.606Z,22.33
2023-10-20T04:05:58.849Z,23.95
2023-10-20T04:08:26.101Z,24.77
2023-10-20T04:10:59.351Z,23.98
2023-10-20T04:13:26.632Z,23.38
2023-10-20T04:15:56.216Z,23.15
2023-10-20T04:18:27.815Z,21.98
2023-10-20T04:20:58.863Z,24.02
2023-10-20T04:23:27.563Z,23.63
2023-10-20T04:25:54.437Z,23.15
2023-10-20T04:28:29.389Z,21.65
2023-10-20T04:31:14.555Z,23.50
2023-10-20T04:33:59.931Z,22.73
2023-10-20T04:36:45.363Z,24.75
2023-10-20T04:39:31.262Z,22.08
2023-10-20T04:42:18.012Z,21.73
2023-10-20T04:45:03.679Z,22.60
2023-10-20T04:47:33.473Z,22.50
2023-10-20T04:50:03.176Z,21.08
2023-10-20T04:52:48.667Z,22.15
2023-10-20T04:57:57.886Z,20.42
2023-10-20T05:00:24.995Z,20.65
2023-10-20T05:02:52.769Z,21.58
2023-10-20T05:05:24.291Z,22.00
2023-10-20T05:07:52.224Z,21.20
2023-10-20T05:10:20.700Z,21.30
2023-10-20T05:12:48.053Z,21.58
2023-10-20T05:15:15.680Z,20.80
2023-10-20T05:17:42.690Z,20.23
2023-10-20T05:20:11.317Z,20.73
2023-10-20T05:22:38.154Z,19.80
2023-10-20T05:25:05.770Z,20.63
2023-10-20T05:27:32.524Z,20.75
2023-10-20T05:29:59.586Z,20.20
2023-10-20T05:32:26.434Z,20.67
2023-10-20T05:34:55.688Z,20.55
2023-10-20T05:37:25.316Z,23.20
2023-10-20T05:39:52.710Z,20.45
2023-10-20T05:42:19.560Z,21.08
2023-10-20T05:45:02.571Z,20.40
2023-10-20T05:47:33.159Z,21.73
2023-10-20T05:50:02.078Z,20.73
2023-10-20T05:52:28.945Z,20.38
2023-10-20T05:54:57.195Z,19.98
2023-10-20T05:57:23.935Z,20.35
2023-10-20T05:59:51.556Z,20.35
2023-10-20T06:02:18.454Z,20.70
2023-10-20T06:04:45.565Z,20.48
2023-10-20T06:07:12.372Z,20.63
2023-10-20T06:09:40.785Z,19.65
2023-10-20T06:12:11.580Z,19.17
2023-10-20T06:14:38.907Z,20.05
2023-10-20T06:17:05.767Z,19.35
2023-10-20T06:19:33.014Z,20.90
2023-10-20T06:22:01.654Z,20.50
2023-10-20T06:24:29.335Z,21.63
2023-10-20T06:27:03.788Z,18.90
2023-10-20T06:29:34.984Z,20.25
2023-10-20T06:32:20.540Z,19.38
2023-10-20T06:34:48.783Z,19.60
2023-10-20T06:37:25.953Z,19.48
2023-10-20T06:39:53.212Z,19.60
2023-10-20T06:42:21.682Z,19.13
2023-10-20T06:44:50.405Z,19.00
2023-10-20T06:47:18.095Z,19.23
2023-10-20T06:49:45.837Z,21.15
2023-10-20T06:52:18.289Z,19.20
2023-10-20T06:55:02.530Z,22.15
2023-10-20T06:57:33.431Z,21.75
2023-10-20T07:00:00.922Z,21.38
2023-10-20T07:02:29.164Z,21.35
2023-10-20T07:04:57.612Z,20.55
2023-10-20T07:07:24.653Z,21.80
2023-10-20T07:09:51.827Z,21.88
2023-10-20T07:12:18.687Z,22.00
2023-10-20T07:14:45.870Z,21.88
2023-10-20T07:17:13.286Z,22.20
2023-10-20T07:19:40.478Z,22.42
2023-10-20T07:22:07.315Z,21.15
2023-10-20T07:24:34.979Z,22.08
2023-10-20T07:27:03.223Z,21.70
2023-10-20T07:29:30.869Z,22.00
2023-10-20T07:31:57.856Z,22.60
2023-10-20T07:34:26.450Z,21.80
2023-10-20T07:36:53.388Z,21.15
2023-10-20T07:39:20.836Z,22.25
2023-10-20T07:41:48.948Z,23.35
2023-10-20T07:44:19.909Z,22.48
2023-10-20T07:46:46.742Z,21.98
2023-10-20T07:49:13.884Z,21.08
2023-10-20T07:51:41.016Z,23.38
2023-10-20T07:54:09.582Z,21.83
2023-10-20T07:56:36.806Z,22.92
2023-10-20T07:59:05.185Z,22.52
2023-10-20T08:01:32.179Z,21.60
2023-10-20T08:03:59.601Z,22.83
2023-10-20T08:06:27.182Z,21.38
2023-10-20T08:08:54.457Z,21.02
2023-10-20T08:11:21.331Z,21.75
2023-10-20T08:13:52.036Z,21.10
2023-10-20T08:16:19.995Z,22.10
2023-10-20T08:18:47.247Z,20.85
2023-10-20T08:21:14.144Z,22.63
2023-10-20T08:23:41.280Z,20.63
2023-10-20T08:26:14.429Z,19.80
2023-10-20T08:28:41.577Z,19.40
2023-10-20T08:31:09.563Z,19.42
2023-10-20T08:33:39.776Z,19.60
2023-10-20T08:36:16.723Z,19.55
2023-10-20T08:38:44.915Z,17.27
2023-10-20T08:41:13.832Z,18.98
2023-10-20T08:43:45.243Z,20.13
2023-10-20T08:46:12.893Z,20.42
2023-10-20T08:48:41.003Z,19.52
2023-10-20T08:51:08.899Z,21.85
2023-10-20T08:53:37.803Z,21.48
2023-10-20T08:56:06.167Z,18.95
2023-10-20T08:58:33.387Z,18.73
2023-10-20T09:01:00.731Z,20.50
2023-10-20T09:03:28.447Z,20.08
2023-10-20T09:06:06.718Z,19.33
2023-10-20T09:08:37.828Z,19.92
2023-10-20T09:11:10.982Z,20.13
2023-10-20T09:13:41.141Z,19.23
2023-10-20T09:16:09.975Z,19.08
2023-10-20T09:18:50.823Z,17.95
2023-10-20T09:21:22.213Z,16.55
2023-10-20T09:24:03.463Z,17.35
2023-10-20T09:26:34.442Z,17.50
2023-10-20T09:29:01.868Z,15.05
2023-10-20T09:31:29.444Z,15.82
2023-10-20T09:33:56.663Z,16.55
2023-10-20T09:36:26.721Z,15.77
2023-10-20T09:38:55.302Z,17.00
2023-10-20T09:41:31.336Z,16.92
2023-10-20T09:44:08.246Z,17.65
2023-10-20T09:46:50.548Z,17.42
2023-10-20T09:49:23.046Z,16.65
2023-10-20T09:54:24.093Z,18.30
2023-10-20T09:56:50.925Z,19.30
2023-10-20T09:59:22.122Z,19.35
2023-10-20T10:01:49.142Z,19.45
2023-10-20T10:04:22.931Z,18.45
2023-10-20T10:06:49.853Z,19.58
2023-10-20T10:09:17.445Z,20.48
2023-10-20T10:11:44.505Z,19.23
2023-10-20T10:14:22.054Z,18.75
2023-10-20T10:16:55.384Z,19.65
2023-10-20T10:19:29.258Z,19.13
2023-10-20T10:21:59.812Z,17.33
2023-10-20T10:24:27.507Z,16.65
2023-10-20T10:27:04.258Z,18.92
2023-10-20T10:29:50.593Z,17.98
2023-10-20T10:32:22.089Z,16.60
2023-10-20T10:34:50.552Z,16.90
2023-10-20T10:37:35.962Z,17.00
2023-10-20T10:40:13.716Z,15.55
2023-10-20T10:42:49.547Z,16.20
2023-10-20T10:45:25.618Z,15.75
2023-10-20T10:48:12.507Z,16.02
2023-10-20T10:50:43.219Z,16.42
2023-10-20T10:53:14.031Z,16.15
2023-10-20T10:55:45.130Z,15.82
2023-10-20T10:58:16.160Z,15.80
2023-10-20T11:00:45.076Z,16.00
2023-10-20T11:03:13.024Z,16.73
2023-10-20T11:05:40.537Z,17.85
2023-10-20T11:08:09.100Z,17.40
2023-10-20T11:10:37.493Z,16.50
2023-10-20T11:13:09.084Z,16.25
2023-10-20T11:15:36.433Z,17.10
2023-10-20T11:18:08.130Z,17.27
2023-10-20T11:20:39.076Z,16.33
2023-10-20T11:23:10.442Z,16.77
2023-10-20T11:25:38.278Z,15.93
2023-10-20T11:28:06.239Z,15.32
2023-10-20T11:30:35.952Z,15.35
2023-10-20T11:33:04.927Z,15.20
2023-10-20T11:35:31.981Z,15.05
2023-10-20T11:37:59.448Z,14.75
2023-10-20T11:40:29.974Z,15.02
2023-10-20T11:42:57.452Z,14.88
2023-10-20T11:45:24.685Z,14.95
2023-10-20T11:47:52.621Z,14.85
2023-10-20T11:50:20.545Z,15.23
2023-10-20T11:52:48.683Z,15.52
2023-10-20T11:55:15.564Z,14.93
2023-10-20T11:57:42.962Z,13.80
2023-10-20T12:00:11.242Z,14.82
2023-10-20T12:02:39.694Z,14.77
2023-10-20T12:05:07.371Z,14.43
2023-10-20T12:07:34.657Z,13.35
2023-10-20T12:10:01.520Z,14.68
2023-10-20T12:12:29.557Z,14.10
2023-10-20T12:14:56.396Z,13.75
2023-10-20T12:17:25.661Z,12.57
2023-10-20T12:19:52.558Z,13.20
2023-10-20T12:22:19.766Z,13.10
2023-10-20T12:24:46.831Z,13.48
2023-10-20T12:27:14.682Z,13.63
2023-10-20T12:29:42.031Z,12.77
2023-10-20T12:32:13.861Z,12.30
2023-10-20T12:34:41.262Z,13.30
2023-10-20T12:37:09.024Z,12.88
2023-10-20T12:39:36.195Z,15.70
2023-10-20T12:42:06.797Z,15.77
2023-10-20T12:44:37.302Z,14.93
2023-10-20T12:47:07.297Z,14.32
2023-10-20T12:49:34.384Z,13.93
2023-10-20T12:52:01.576Z,14.55
2023-10-20T12:54:28.460Z,14.35
2023-10-20T12:56:56.102Z,13.52
2023-10-20T12:59:22.998Z,13.60
2023-10-20T13:01:51.213Z,13.63
2023-10-20T13:04:18.319Z,15.90
2023-10-20T13:06:59.301Z,14.25
2023-10-20T13:09:28.018Z,14.88
2023-10-20T13:11:57.578Z,14.60
2023-10-20T13:14:24.766Z,13.60
2023-10-20T13:16:52.266Z,14.70
2023-10-20T13:19:19.544Z,14.05
2023-10-20T13:21:46.737Z,13.55
2023-10-20T13:24:13.509Z,13.82
2023-10-20T13:26:40.770Z,13.43
2023-10-20T13:29:07.630Z,13.73
2023-10-20T13:31:35.231Z,13.93
2023-10-20T13:34:03.589Z,12.45
2023-10-20T13:36:30.817Z,13.40
2023-10-20T13:38:57.704Z,13.55
2023-10-20T13:41:25.233Z,13.63
2023-10-20T13:43:53.210Z,13.63
2023-10-20T13:46:20.783Z,13.55
2023-10-20T13:48:48.545Z,13.77
2023-10-20T13:51:16.505Z,12.43
2023-10-20T13:53:43.468Z,12.60
2023-10-20T13:56:10.758Z,12.80
2023-10-20T13:58:37.667Z,13.00
2023-10-20T14:01:04.911Z,13.50
2023-10-20T14:03:33.204Z,14.20
2023-10-20T14:06:00.687Z,14.00
2023-10-20T14:08:27.964Z,13.48
2023-10-20T14:10:56.666Z,13.20
2023-10-20T14:13:23.579Z,13.50
2023-10-20T14:15:50.926Z,14.18
2023-10-20T14:18:18.266Z,14.63
2023-10-20T14:20:45.521Z,14.70
2023-10-20T14:23:12.481Z,14.57
2023-10-20T14:25:39.697Z,14.32
2023-10-20T14:28:07.093Z,15.23
2023-10-20T14:30:34.508Z,15.10
2023-10-20T14:33:01.679Z,15.55
2023-10-20T14:35:29.233Z,14.90
2023-10-20T14:37:59.121Z,15.38
2023-10-20T14:40:27.410Z,14.73
2023-10-20T14:42:54.363Z,15.50
2023-10-20T14:45:21.643Z,15.27
2023-10-20T14:47:48.625Z,15.25
2023-10-20T14:50:15.825Z,15.23
2023-10-20T14:52:42.651Z,14.85
2023-10-20T14:55:12.698Z,14.45
2023-10-20T14:57:39.568Z,14.38
2023-10-20T15:00:11.014Z,13.73
2023-10-20T15:02:41.715Z,13.95
2023-10-20T15:05:09.930Z,14.30
2023-10-20T15:07:37.783Z,14.57
2023-10-20T15:10:05.750Z,14.45
2023-10-20T15:12:32.842Z,14.73
2023-10-20T15:15:00.784Z,14.23
2023-10-20T15:17:28.376Z,14.40
2023-10-20T15:19:55.419Z,15.65
2023-10-20T15:22:23.753Z,16.00
2023-10-20T15:24:53.045Z,19.40
2023-10-20T15:27:20.231Z,17.45
2023-10-20T15:29:47.303Z,16.70
2023-10-20T15:32:16.681Z,18.73
2023-10-20T15:34:43.723Z,17.00
2023-10-20T15:37:10.856Z,16.80
2023-10-20T15:39:49.165Z,19.90
2023-10-20T15:42:20.054Z,22.55
2023-10-20T15:44:46.907Z,22.13
2023-10-20T15:47:14.157Z,20.50
2023-10-20T15:49:41.353Z,21.10
2023-10-20T15:52:09.290Z,19.25
2023-10-20T15:54:36.210Z,21.30
2023-10-20T15:57:03.521Z,20.38
2023-10-20T15:59:31.355Z,18.80
2023-10-20T16:01:58.653Z,18.15
2023-10-20T16:04:25.783Z,18.05
2023-10-20T16:06:53.057Z,18.60
2023-10-20T16:09:20.313Z,18.95
2023-10-20T16:11:47.558Z,19.42
2023-10-20T16:14:14.436Z,20.25
2023-10-20T16:16:41.658Z,19.98
2023-10-20T16:19:08.568Z,22.20
2023-10-20T16:21:35.775Z,23.98
2023-10-20T16:24:02.716Z,27.45
2023-10-20T16:26:30.788Z,25.77
2023-10-20T16:28:57.736Z,24.70
2023-10-20T16:31:24.918Z,26.83
2023-10-20T16:33:54.952Z,25.98
2023-10-20T16:36:22.115Z,29.50
2023-10-20T16:38:49.004Z,29.80
2023-10-20T16:41:19.052Z,32.65
2023-10-20T16:43:45.931Z,33.38
2023-10-20T16:46:13.125Z,31.25
2023-10-20T16:48:41.855Z,34.65
2023-10-20T16:51:09.269Z,35.67
2023-10-20T16:53:36.552Z,42.00
2023-10-20T16:56:05.781Z,51.38
2023-10-20T16:58:32.564Z,51.70
2023-10-20T17:01:04.197Z,50.40
2023-10-20T17:03:31.376Z,50.80
2023-10-20T17:05:58.744Z,50.55
2023-10-20T17:08:27.245Z,48.40
2023-10-20T17:10:56.011Z,43.97
2023-10-20T17:13:22.887Z,45.33
2023-10-20T17:15:50.046Z,42.88
2023-10-20T17:18:17.004Z,42.95
2023-10-20T17:20:44.409Z,43.58
2023-10-20T17:23:11.578Z,46.63
2023-10-20T17:25:39.497Z,51.97
2023-10-20T17:28:06.583Z,52.60
2023-10-20T17:30:36.772Z,51.05
2023-10-20T17:33:05.190Z,48.70
2023-10-20T17:35:35.854Z,44.28
2023-10-20T17:38:02.844Z,43.33
2023-10-20T17:40:30.024Z,43.58
2023-10-20T17:42:56.860Z,45.80
2023-10-20T17:45:24.310Z,45.55
2023-10-20T17:47:51.443Z,43.08
2023-10-20T17:50:18.861Z,42.20
2023-10-20T17:52:46.350Z,43.03
2023-10-20T17:55:13.578Z,46.50
2023-10-20T17:57:40.443Z,47.30
2023-10-20T18:00:13.132Z,47.42
2023-10-20T18:02:40.241Z,47.15
2023-10-20T18:05:07.851Z,46.38
2023-10-20T18:07:34.730Z,51.67
2023-10-20T18:10:02.175Z,50.92
2023-10-20T18:12:29.197Z,50.17
2023-10-20T18:14:56.392Z,54.35
2023-10-20T18:17:23.387Z,59.00
2023-10-20T18:19:50.570Z,55.63
2023-10-20T18:22:18.249Z,50.83
2023-10-20T18:24:45.426Z,51.42
2023-10-20T18:27:12.305Z,51.05
2023-10-20T18:29:40.907Z,50.78
2023-10-20T18:32:07.760Z,49.97
2023-10-20T18:34:35.475Z,48.30
2023-10-20T18:37:02.970Z,50.00
2023-10-20T18:39:30.192Z,52.78
2023-10-20T18:41:57.170Z,51.15
2023-10-20T18:44:24.407Z,50.30
2023-10-20T18:46:51.682Z,50.83
2023-10-20T18:49:19.179Z,50.35
2023-10-20T18:51:46.032Z,48.92
2023-10-20T18:54:13.216Z,51.78
2023-10-20T18:56:40.129Z,48.63
2023-10-20T18:59:07.374Z,47.47
2023-10-20T19:01:34.293Z,48.55
2023-10-20T19:04:02.517Z,49.63
2023-10-20T19:06:29.797Z,47.88
2023-10-20T19:08:57.084Z,49.30
2023-10-20T19:11:24.155Z,49.50
2023-10-20T19:13:52.648Z,48.05
2023-10-20T19:16:19.608Z,48.42
2023-10-20T19:18:46.906Z,48.75
2023-10-20T19:21:13.892Z,49.60
2023-10-20T19:23:42.103Z,50.42
2023-10-20T19:26:11.516Z,49.40
2023-10-20T19:28:41.904Z,47.75
2023-10-20T19:31:09.242Z,47.33
2023-10-20T19:33:37.159Z,46.03
2023-10-20T19:36:06.294Z,45.55
2023-10-20T19:38:33.766Z,46.83
2023-10-20T19:41:00.838Z,44.20
2023-10-20T19:43:28.164Z,42.63
2023-10-20T19:45:55.047Z,43.10
2023-10-20T19:48:22.249Z,41.88
2023-10-20T19:50:49.131Z,41.33
2023-10-20T19:53:16.599Z,41.33
2023-10-20T19:55:44.190Z,41.45
2023-10-20T19:58:12.128Z,41.13
2023-10-20T20:00:40.736Z,41.80
2023-10-20T20:03:08.553Z,40.55
2023-10-20T20:05:36.977Z,39.58
2023-10-20T20:08:04.448Z,38.75
2023-10-20T20:10:31.361Z,37.22
2023-10-20T20:12:58.489Z,38.00
2023-10-20T20:15:25.515Z,35.20
2023-10-20T20:17:52.829Z,36.78
2023-10-20T20:20:19.934Z,36.65
2023-10-20T20:22:47.093Z,35.72
2023-10-20T20:25:13.970Z,35.83
2023-10-20T20:27:41.279Z,33.47
2023-10-20T20:30:08.835Z,35.25
2023-10-20T20:32:36.122Z,33.97
2023-10-20T20:35:04.579Z,33.47
2023-10-20T20:37:31.740Z,32.72
2023-10-20T20:39:58.655Z,33.05
2023-10-20T20:42:26.291Z,33.60
2023-10-20T20:44:53.204Z,32.25
2023-10-20T20:47:20.384Z,31.00
2023-10-20T20:49:47.195Z,31.75
2023-10-20T20:52:14.369Z,32.67
2023-10-20T20:54:41.211Z,30.52
2023-10-20T20:57:08.572Z,31.80
2023-10-20T20:59:36.248Z,31.35
2023-10-20T21:02:03.861Z,30.58
2023-10-20T21:04:31.077Z,28.20
2023-10-20T21:06:58.354Z,29.02
2023-10-20T21:09:25.427Z,30.05
2023-10-20T21:11:52.625Z,28.58
2023-10-20T21:14:19.549Z,28.20
2023-10-20T21:16:47.304Z,28.67
2023-10-20T21:19:14.980Z,27.20
2023-10-20T21:21:42.189Z,24.88
2023-10-20T21:24:09.399Z,25.58
2023-10-20T21:26:36.752Z,24.83
2023-10-20T21:29:06.806Z,24.27
2023-10-20T21:31:33.960Z,23.65
2023-10-20T21:34:00.761Z,22.55
2023-10-20T21:36:27.940Z,21.95
2023-10-20T21:38:54.825Z,20.85
2023-10-20T21:41:22.010Z,20.75
2023-10-20T21:43:48.822Z,19.88
2023-10-20T21:46:16.147Z,19.92
2023-10-20T21:48:43.138Z,18.27
2023-10-20T21:51:13.791Z,18.40
2023-10-20T21:53:40.757Z,16.58
2023-10-20T21:56:10.105Z,15.70
2023-10-20T21:58:38.463Z,15.13
2023-10-20T22:01:06.463Z,14.55
2023-10-20T22:03:33.724Z,14.18
2023-10-20T22:06:01.182Z,13.60
2023-10-20T22:08:28.103Z,13.07
2023-10-20T22:10:55.634Z,13.02
2023-10-20T22:13:22.593Z,12.95
2023-10-20T22:15:49.925Z,11.65
2023-10-20T22:18:16.876Z,11.10
2023-10-20T22:20:44.268Z,10.75
2023-10-20T22:23:11.328Z,11.43
2023-10-20T22:25:38.638Z,10.07
2023-10-20T22:28:06.095Z,9.70
2023-10-20T22:30:33.610Z,10.30
2023-10-20T22:33:01.005Z,10.23
2023-10-20T22:35:28.316Z,9.43
2023-10-20T22:37:55.207Z,8.88
2023-10-20T22:40:22.591Z,7.88
2023-10-20T22:42:49.444Z,8.25
2023-10-20T22:45:16.612Z,8.65
2023-10-20T22:47:43.530Z,8.77
2023-10-20T22:50:10.953Z,7.43
2023-10-20T22:52:37.812Z,7.03
2023-10-20T22:55:05.404Z,7.75
2023-10-20T22:57:33.032Z,6.70
2023-10-20T23:00:00.593Z,6.55
2023-10-20T23:02:27.664Z,6.65
2023-10-20T23:04:54.985Z,6.47
2023-10-20T23:07:21.778Z,6.15
2023-10-20T23:09:48.969Z,6.95
2023-10-20T23:12:17.834Z,5.90
2023-10-20T23:14:45.175Z,6.03
2023-10-20T23:17:11.990Z,5.13
2023-10-20T23:19:39.208Z,6.30
2023-10-20T23:22:06.088Z,5.60
2023-10-20T23:24:33.185Z,5.68
2023-10-20T23:27:01.269Z,6.00
2023-10-20T23:29:28.681Z,6.43
2023-10-20T23:31:55.476Z,5.90
2023-10-20T23:34:22.623Z,6.70
2023-10-20T23:36:49.488Z,5.78
2023-10-20T23:39:16.613Z,5.03
2023-10-20T23:41:43.615Z,5.50
2023-10-20T23:44:10.766Z,5.35
2023-10-20T23:46:37.566Z,5.35
2023-10-20T23:49:04.679Z,5.38
2023-10-20T23:51:31.452Z,5.63
2023-10-20T23:53:58.603Z,6.28
2023-10-20T23:56:26.200Z,5.82
2023-10-20T23:58:53.343Z,4.95
